Relevés horaires St-Hubert (Belgique)


Relevés horaires à St-Hubert - Jeudi 10 Juin 2021
Heure UTC1 Température [°C] Vent [km/h] Hum. [%] Pres.4 [hPa] Visi. [Km] Nébu. [octa] Préc.5 [mm] Cond.
2m. Res. Ros. Dir.2 Vit. Moy. Raf.3
23:00 17.5 17.5 11.4 N 3.7 3.7 5.6 67 1020.6(0.1/3h) 35 0/8 -- --
22:00 17.6 17.6 11.4 NO 3.7 3.7 5.6 67 1020.9(0.4/3h) 45 0/8 -- --
21:00 18.5 18.5 11.1 NNO 3.7 5.6 7.4 62 1020.6(-0.2/3h) 45 0/8 -- --
20:00 19.1 19.1 11.7 NNO 3.7 3.7 5.6 62 1020.2(0.1/3h) 40 0/8 -- --
19:00 20.3 20.3 12.3 NO 3.7 5.6 7.4 60 1019.8(-0.5/3h) 40 0/8 -- --
18:00 21.1 21.1 13.3 NO 3.7 9.3 16.7 61 1019.8(-0.6/3h) 30 0/8 0/12h
--
17:00 21.4 21.4 12.0 N 7.4 9.3 13.0 55 1019.8(-0.8/3h) 35 0/8 -- --
16:00 22.1 22.1 12.8 ONO 7.4 9.3 13.0 56 1019.9(-0.9/3h) 40 0/8 -- --
15:00 21.9 21.9 11.3 ONO 7.4 9.3 16.7 51 1020.2(-1.0/3h) 35 0/8 -- --
14:00 21.9 21.9 10.8 ONO 3.7 9.3 16.7 49 1020.5(-0.8/3h) 35 1/8 -- --
13:00 20.9 20.9 11.2 NO 7.4 7.4 11.1 54 1021.2(-0.4/3h) 35 8/8 -- --
12:00 20.9 20.9 10.0 NNO 5.6 9.3 13.0 50 1021.6(0.1/3h) 40 8/8 0/6h
--
11:00 20.9 20.9 11.1 NO 7.4 7.4 13.0 53 1021.6(0.4/3h) 35 0/8 -- --
10:00 20.1 20.1 10.8 NO 5.6 7.4 11.1 55 1021.8(0.6/3h) 40 4/8 -- --
09:00 19.7 19.7 10.5 ONO 5.6 5.6 7.4 55 1021.8(0.7/3h) 30 3/8 -- --
08:00 19.8 19.8 11.9 SO 3.7 3.7 5.6 60 1021.4(0.5/3h) 26 0/8 -- --
07:00 19.4 19.4 10.8 N 1.9 1.9 3.7 58 1021.4(0.3/3h) 30 0/8 -- --
06:00 18.0 18.0 10.0 N 1.9 5.6 5.6 59 1021.4(0.0/3h) 25 0/8 0/12h
--
05:00 13.9 13.9 11.7 ENE 1.9 3.7 3.7 87 1022.2(-0.5/3h) 13 0/8 -- --
04:00 13.3 13.3 10.6 ENE 3.7 3.7 3.7 84 1022.4(-0.7/3h) 13 0/8 -- --
03:00 11.4 11.4 9.9 ENE 3.7 5.6 5.6 90 1022.9(-0.6/3h) 13 0/8 -- --
02:00 13.2 13.2 9.2 ENE 5.6 5.6 5.6 77 1022.9(-0.4/3h) 18 0/8 -- --
01:00 15.6 15.6 9.5 NE 5.6 5.6 5.6 67 1022.6(-0.3/3h) 30 7/8 -- --
00:00 16.6 16.6 7.7 N 3.7 7.4 11.1 56 1022.4(-0.3/3h) 45 7/8 0/6h
0/24h
--

1 Coordinated Universal Time. Actuellement il est 15:00 locale et 13:00 UTC.

2 Le vent souffle depuis la direction indiquée vers la direction oposée.

3 Les rafales max. sont disponible 40 min après l'heure du relevé.

4 Pour les stations d'altitude (plus de 600m) le géopotentiel du niveau le plus proche de la pression obligatoire est indiqué.

5 Les stations disposant d'un diffuseur peuvent indiquer "trace". Cela signifie que des précipitations ont touchés le sol mais que la quantité est inférieure à 0.1 mm.

Récapitulatif de la journée
Température [°C] Vent [km/h] Ensoleillement4 [h] Precipitations totale5 [mm] Pression [Hpa]
Min1 Max.2 Moy.3 Max. Min Max.
10.3 22.3 6.2 16.7 0 h 0 min 0 1019.8 1022.9

1 Température minimale relevée entre 18:00 UTC la veille et 18:00 UTC le jour donné.

2 Température maximale relevée entre 06:00 UTC le jour donné et 06:00 UTC le lendemain.

3 Vent moyen de la journée basé sur les relevés horaires.

4 Ensoleillement en heures relevé entre 06:00 UTC la veille et 06:00 UTC le jour donné.

5 Précipitations totales tombées entre 06:00 UTC la jour donné et 06:00 UTC le lendemain.

Graphiques horaires